Terminal Aerodrome Forecast
Issued by NWS

Home | Current Version | Previous Version | Text Only | Print | Product List | Glossary On
Versions: 1 2 3 4 5 6 7 8 9 10 11 12 13 14 15 16 17 18 19 20 21
000
FTUS44 KTSA 181100
TAFXNA
TAF
KXNA 181120Z 1812/1912 11004KT P6SM SCT050 BKN100
     FM181500 14007KT 4SM RA BR OVC035
      TEMPO 1815/1819 4SM -TSRA BKN035CB
     FM190000 VRB03KT P6SM OVC050
      TEMPO 1908/1912 4SM -TSRA BKN025CB=

USA.gov is the U.S. government's official web portal to all federal, state and local government web resources and services.